Portada
METAR-TAF:

METAR-TAF

Aeroports :

Illa de Man,

latitud: 54-05N, longitud: 004-38W, altitud: 17 m

Observació

L'informe es va fer fa 33 minuts, a les 03:50 UTC
Vent 26 kt del Est/Sud-Est
Temperatura 6°C
Humitat 81%
Pressió 1003 hPa
Visibilitat 10 km o més
Cel ennuvolat a una alçada de 1600 ft
Cel cobert a una alçada de 2200 ft

METAR: EGNS 210350Z 12026KT 9999 BKN016 OVC022 06/03 Q1003

Hora: 04:23 (04:23 UTC)

Pronòstic

L'informe es va fer fa 11 hores i 23 minuts, a les 17:00 UTC
Pronòstic vàlid del 20 a les 18 UTC al 20 a les 22 UTC
Vent 23 kt del Sud-Est
Visibilitat 10 km o més
Escasses núvols a una alçada de 2000 ft

TAF: EGNS 201700Z 2018/2022 13023KT 9999 FEW020

Observacions i pronòstics meteorològics de més de 4000 aeroports (METAR i TAF).

Les estacions disponibles són els punts grocs i vermells al mapa.

Posi el ratolí al punt desitjat per veure el nom de l'estació.

Feu clic per veure les observacions i els pronòstics meteorològics.

Per canviar el mapa: feu clic els botons verds amb una creu de color negre per apropar; al botó verd amb un guió per allunyar la imatge; o en les fletxes verdes per a mapes adjacents.


METAR-TAF: